Time;durP1;ratioP1;P1;durP2;ratioP2;P2;SDS_P1;SDS_P2;PMS_P1;PMS_P2;Temp;Humidity;BMP_temperature;BMP_pressure;BME280_temperature;BME280_humidity;BME280_pressure;Samples;Min_cycle;Max_cycle;Signal;HPM_P1;HPM_P2
2023/12/14 00:00:10;;;;;;;98.80;40.00;;;;;;;3.15;100.00;97287.64;437449;1250;107618;-40
2023/12/14 00:10:37;;;;;;;73.50;32.80;;;;;;;3.09;100.00;97291.88;437502;1250;99251;-39
2023/12/14 00:20:43;;;;;;;63.90;28.00;;;;;;;3.12;100.00;97295.48;437347;1250;108232;-39
2023/12/14 00:30:48;;;;;;;56.90;27.90;;;;;;;3.13;100.00;97300.48;437614;1247;97983;-40
2023/12/14 00:40:56;;;;;;;57.20;27.10;;;;;;;3.07;100.00;97311.28;437521;1250;111594;-40
2023/12/14 01:01:09;;;;;;;65.80;32.00;;;;;;;3.16;100.00;97345.06;437470;1250;98813;-40
2023/12/14 01:21:24;;;;;;;88.80;36.40;;;;;;;3.13;100.00;97368.23;437611;1250;99298;-41
2023/12/14 01:31:31;;;;;;;111.70;37.40;;;;;;;3.01;100.00;97373.64;438122;1250;112062;-40
2023/12/14 01:41:38;;;;;;;74.00;30.40;;;;;;;2.96;100.00;97377.66;437634;1250;107717;-39
2023/12/14 01:51:45;;;;;;;68.50;30.30;;;;;;;3.00;100.00;97380.27;437533;1250;99237;-40
2023/12/14 02:01:53;;;;;;;67.40;31.10;;;;;;;3.03;100.00;97380.58;437428;1250;110935;-39
2023/12/14 02:12:00;;;;;;;61.00;28.30;;;;;;;3.05;100.00;97382.85;437307;1250;107237;-40
2023/12/14 02:22:07;;;;;;;58.80;28.30;;;;;;;3.05;100.00;97383.73;437620;1250;99095;-40
2023/12/14 02:32:13;;;;;;;52.40;27.10;;;;;;;3.09;100.00;97381.27;438161;1250;108748;-42
2023/12/14 02:42:21;;;;;;;83.80;32.60;;;;;;;3.04;100.00;97385.64;437630;1250;99204;-39
2023/12/14 02:52:28;;;;;;;53.90;26.20;;;;;;;2.97;100.00;97389.70;437468;1250;112137;-39
2023/12/14 03:02:35;;;;;;;50.10;24.70;;;;;;;3.00;100.00;97401.13;437148;1250;106381;-43
2023/12/14 03:12:43;;;;;;;47.70;24.90;;;;;;;3.03;100.00;97405.20;437161;1250;99205;-42
2023/12/14 03:22:51;;;;;;;47.10;22.00;;;;;;;3.07;100.00;97419.58;437346;1251;108414;-41
2023/12/14 03:32:58;;;;;;;46.80;23.90;;;;;;;3.09;100.00;97439.94;437450;1247;99310;-40
2023/12/14 03:43:06;;;;;;;51.80;23.90;;;;;;;3.06;100.00;97448.86;437654;1250;111158;-40
2023/12/14 03:53:14;;;;;;;60.20;26.80;;;;;;;2.99;100.00;97460.16;437408;1250;107554;-40
2023/12/14 04:03:22;;;;;;;40.90;22.50;;;;;;;2.98;100.00;97475.55;437488;1250;99211;-40
2023/12/14 04:13:29;;;;;;;34.90;20.80;;;;;;;3.02;100.00;97488.94;437675;1250;108527;-39
2023/12/14 04:23:36;;;;;;;32.10;17.80;;;;;;;3.10;100.00;97495.10;437308;1250;97980;-40
2023/12/14 04:33:43;;;;;;;28.80;17.40;;;;;;;3.19;100.00;97504.08;437384;1247;111602;-39
2023/12/14 04:43:51;;;;;;;44.60;21.60;;;;;;;3.19;100.00;97514.65;437383;1251;107170;-40
2023/12/14 04:53:58;;;;;;;32.80;17.00;;;;;;;3.12;100.00;97522.54;437381;1250;99231;-39
2023/12/14 05:14:11;;;;;;;24.40;15.20;;;;;;;3.08;100.00;97548.27;437246;1248;108077;-40
2023/12/14 05:24:19;;;;;;;20.60;14.00;;;;;;;3.15;100.00;97566.39;437423;1251;99280;-40
2023/12/14 05:34:26;;;;;;;19.50;13.30;;;;;;;3.22;100.00;97583.91;437378;1251;107648;-40
2023/12/14 05:44:34;;;;;;;25.40;14.70;;;;;;;3.20;100.00;97592.16;437497;1250;98830;-38
2023/12/14 05:54:41;;;;;;;29.70;16.70;;;;;;;3.08;100.00;97604.15;437538;1250;113252;-38
2023/12/14 06:04:48;;;;;;;20.40;13.00;;;;;;;3.05;100.00;97617.04;437296;1247;109465;-39
2023/12/14 06:14:55;;;;;;;21.00;13.70;;;;;;;3.05;100.00;97629.42;437331;1260;99317;-40
2023/12/14 06:25:01;;;;;;;17.60;12.30;;;;;;;3.10;100.00;97648.12;437352;1260;107939;-40
2023/12/14 06:35:09;;;;;;;21.50;13.30;;;;;;;3.17;100.00;97660.47;437297;1248;99190;-38
2023/12/14 06:45:15;;;;;;;28.00;16.40;;;;;;;3.18;100.00;97667.00;437402;1251;111998;-38
2023/12/14 06:55:21;;;;;;;31.30;18.20;;;;;;;3.09;100.00;97687.40;437279;1250;109428;-41
2023/12/14 07:15:35;;;;;;;23.60;14.60;;;;;;;3.12;100.00;97711.91;437391;1248;108613;-38
2023/12/14 07:25:42;;;;;;;22.90;16.60;;;;;;;3.17;100.00;97725.16;437327;1248;99266;-40
2023/12/14 07:35:50;;;;;;;26.10;16.80;;;;;;;3.28;100.00;97739.20;437377;1248;111137;-40
2023/12/14 07:56:06;;;;;;;47.50;26.60;;;;;;;3.17;100.00;97777.05;437550;1250;98823;-39
2023/12/14 08:06:14;;;;;;;37.40;22.60;;;;;;;3.13;100.00;97801.61;437423;1251;110155;-39
2023/12/14 08:16:21;;;;;;;29.30;20.30;;;;;;;3.18;100.00;97811.20;437380;1247;107971;-40
2023/12/14 08:26:28;;;;;;;29.20;19.20;;;;;;;3.28;100.00;97826.49;437449;1248;99247;-39
2023/12/14 08:36:35;;;;;;;31.50;19.40;;;;;;;3.32;100.00;97838.24;437310;1248;108985;-40
2023/12/14 08:46:42;;;;;;;34.60;20.90;;;;;;;3.34;100.00;97849.66;437353;1251;97975;-38
2023/12/14 08:56:49;;;;;;;38.60;23.50;;;;;;;3.33;100.00;97860.48;437508;1248;111552;-38
2023/12/14 09:06:56;;;;;;;34.00;19.70;;;;;;;3.29;100.00;97877.98;437303;1251;108402;-39
2023/12/14 09:17:03;;;;;;;22.20;16.00;;;;;;;3.38;100.00;97886.52;437376;1253;98818;-39
2023/12/14 09:37:17;;;;;;;26.10;15.00;;;;;;;3.58;100.00;97906.58;437337;1252;99362;-40
2023/12/14 09:47:25;;;;;;;32.90;18.50;;;;;;;3.67;100.00;97913.28;437329;1252;112163;-40
2023/12/14 10:07:41;;;;;;;38.60;21.20;;;;;;;3.74;100.00;97926.82;437389;1251;99233;-38
2023/12/14 10:38:09;;;;;;;20.10;12.00;;;;;;;3.97;100.00;97951.13;437353;1251;111191;-40
2023/12/14 10:48:20;;;;;;;13.20;9.80;;;;;;;3.92;100.00;97964.30;437429;1247;106991;-40
2023/12/14 10:58:28;;;;;;;19.80;13.40;;;;;;;3.83;100.00;97969.09;437495;1248;99227;-41
2023/12/14 11:08:35;;;;;;;26.00;15.80;;;;;;;3.69;100.00;97976.14;437287;1250;107351;-39
2023/12/14 11:18:42;;;;;;;25.50;17.60;;;;;;;3.61;100.00;97988.82;437524;1247;99223;-40
2023/12/14 11:28:51;;;;;;;28.60;16.30;;;;;;;3.53;100.00;98002.36;437128;1250;111787;-39
2023/12/14 11:38:58;;;;;;;27.10;16.00;;;;;;;3.54;100.00;98017.56;437434;1250;107212;-39
2023/12/14 11:49:07;;;;;;;27.40;18.70;;;;;;;3.55;100.00;98025.81;437188;1250;99279;-40
2023/12/14 11:59:14;;;;;;;35.10;20.50;;;;;;;3.60;100.00;98026.75;437301;1250;108591;-39
2023/12/14 12:09:38;;;;;;;42.90;23.90;;;;;;;3.54;100.00;98025.94;437383;1247;99215;-39
2023/12/14 12:19:45;;;;;;;31.80;19.50;;;;;;;3.45;100.00;98026.44;437344;1250;111033;-39
2023/12/14 12:29:53;;;;;;;34.30;18.90;;;;;;;3.40;100.00;98033.43;437355;1251;107262;-38
2023/12/14 12:40:01;;;;;;;34.00;18.30;;;;;;;3.42;100.00;98039.27;437332;1250;97998;-39
2023/12/14 12:50:10;;;;;;;33.70;20.80;;;;;;;3.41;100.00;98055.10;436852;1252;420105;-38
2023/12/14 13:00:15;;;;;;;;;;;;;;;3.40;100.00;98074.36;437272;1250;99215;-39
2023/12/14 13:10:26;;;;;;;39.10;21.50;;;;;;;3.27;100.00;98083.84;437338;1247;111639;-39
2023/12/14 13:20:39;;;;;;;42.20;22.50;;;;;;;3.22;100.00;98101.27;437310;1248;108240;-39
2023/12/14 13:30:47;;;;;;;59.60;27.40;;;;;;;3.12;100.00;98113.83;437310;1250;97951;-38
2023/12/14 13:40:54;;;;;;;51.50;30.00;;;;;;;3.08;100.00;98131.40;437121;1250;108038;-39
2023/12/14 13:51:01;;;;;;;44.00;21.80;;;;;;;3.05;100.00;98142.88;437477;1250;99270;-39
2023/12/14 14:21:19;;;;;;;44.90;23.70;;;;;;;2.98;100.00;98191.30;437323;1250;99287;-40
2023/12/14 14:31:29;;;;;;;48.30;26.30;;;;;;;2.96;100.00;98208.56;437179;1247;108551;-40
2023/12/14 14:41:37;;;;;;;39.90;22.40;;;;;;;2.94;100.00;98221.21;437333;1248;97963;-38
2023/12/14 14:51:44;;;;;;;45.60;23.50;;;;;;;2.92;100.00;98250.96;437245;1248;113028;-38
2023/12/14 15:01:51;;;;;;;61.20;27.30;;;;;;;2.89;100.00;98262.16;437184;1250;107682;-39
2023/12/14 15:11:57;;;;;;;70.60;29.80;;;;;;;2.79;100.00;98264.67;437260;1250;99218;-40
2023/12/14 15:22:03;;;;;;;96.40;44.40;;;;;;;2.78;100.00;98277.67;437151;1251;108763;-39
2023/12/14 15:32:11;;;;;;;60.40;27.90;;;;;;;2.81;100.00;98286.54;437197;1250;99253;-39
2023/12/14 15:42:19;;;;;;;43.00;24.30;;;;;;;2.79;100.00;98306.65;437288;1250;111611;-39
2023/12/14 15:52:27;;;;;;;35.00;19.80;;;;;;;2.77;100.00;98331.14;437125;1250;108702;-38
2023/12/14 16:32:54;;;;;;;42.40;23.00;;;;;;;2.66;100.00;98402.77;437300;1247;111649;-40
2023/12/14 16:43:03;;;;;;;40.20;22.20;;;;;;;2.63;100.00;98417.17;437368;1251;108537;-39
2023/12/14 16:53:10;;;;;;;39.00;20.70;;;;;;;2.62;100.00;98431.86;437480;1260;99225;-39
2023/12/14 17:03:18;;;;;;;45.60;24.50;;;;;;;2.62;100.00;98441.92;437444;1247;108559;-40
2023/12/14 17:33:36;;;;;;;50.60;25.20;;;;;;;2.58;100.00;98484.30;437501;1250;106758;-39
2023/12/14 17:43:42;;;;;;;45.20;23.00;;;;;;;2.49;100.00;98500.17;437452;1247;98084;-40
2023/12/14 17:53:49;;;;;;;39.50;23.50;;;;;;;2.43;100.00;98514.56;437235;1250;109518;-39
2023/12/14 18:03:56;;;;;;;56.70;27.10;;;;;;;2.42;100.00;98527.99;437406;1247;98809;-39
2023/12/14 18:24:10;;;;;;;47.70;27.60;;;;;;;2.41;100.00;98551.48;437428;1250;108488;-40
2023/12/14 18:34:17;;;;;;;65.60;31.20;;;;;;;2.39;100.00;98565.30;437450;1246;98816;-39
2023/12/14 18:44:24;;;;;;;41.00;21.90;;;;;;;2.30;100.00;98586.27;437575;1247;107213;-39
2023/12/14 18:54:31;;;;;;;42.90;22.20;;;;;;;2.32;100.00;98600.30;437373;1251;99209;-39
2023/12/14 19:04:40;;;;;;;41.30;20.80;;;;;;;2.32;100.00;98622.10;437419;1250;111287;-40
2023/12/14 19:14:47;;;;;;;48.70;22.90;;;;;;;2.37;100.00;98633.92;437432;1247;107129;-39
2023/12/14 19:24:55;;;;;;;37.90;19.30;;;;;;;2.38;100.00;98656.29;437357;1250;99247;-38
2023/12/14 19:35:01;;;;;;;44.00;22.10;;;;;;;2.36;100.00;98670.77;437402;1250;108360;-41
2023/12/14 19:45:10;;;;;;;33.10;18.00;;;;;;;2.34;100.00;98680.90;437392;1250;98827;-39
2023/12/14 19:55:17;;;;;;;44.10;19.30;;;;;;;2.30;100.00;98694.20;437400;1250;111444;-39
2023/12/14 20:05:23;;;;;;;39.70;22.00;;;;;;;2.25;100.00;98706.39;437167;1248;107275;-39
2023/12/14 20:15:29;;;;;;;52.80;23.60;;;;;;;2.21;100.00;98711.67;437376;1250;99260;-40
2023/12/14 20:25:36;;;;;;;45.50;23.90;;;;;;;2.20;100.00;98719.97;437454;1250;108473;-39
2023/12/14 20:45:48;;;;;;;49.30;23.10;;;;;;;2.13;100.00;98756.48;437510;1250;111137;-38
2023/12/14 20:55:56;;;;;;;47.60;25.40;;;;;;;2.01;100.00;98773.55;437346;1247;108174;-40
2023/12/14 21:16:06;;;;;;;51.10;24.30;;;;;;;1.64;100.00;98804.44;437402;1247;108218;-39
2023/12/14 21:26:15;;;;;;;52.30;23.50;;;;;;;1.49;100.00;98817.88;437359;1250;98572;-38
2023/12/14 21:36:22;;;;;;;39.80;20.80;;;;;;;1.35;100.00;98838.39;438022;1250;112178;-41
2023/12/14 21:46:29;;;;;;;33.10;19.10;;;;;;;1.24;100.00;98854.30;437484;1250;107529;-40
2023/12/14 21:56:35;;;;;;;33.40;18.70;;;;;;;1.19;100.00;98875.47;437619;1250;99244;-37
2023/12/14 22:06:43;;;;;;;31.80;19.00;;;;;;;1.13;100.00;98888.13;437623;1250;107855;-39
2023/12/14 22:26:56;;;;;;;44.60;22.00;;;;;;;1.08;100.00;98922.37;437497;1248;111770;-39
2023/12/14 22:37:03;;;;;;;37.70;18.40;;;;;;;1.08;100.00;98946.95;437509;1247;107364;-38
2023/12/14 22:47:09;;;;;;;59.10;27.10;;;;;;;0.98;100.00;98960.41;437508;1250;98686;-39
2023/12/14 22:57:16;;;;;;;36.70;19.10;;;;;;;0.93;100.00;98963.80;437601;1250;99883;-38
2023/12/14 23:07:23;;;;;;;32.90;16.70;;;;;;;0.96;100.00;98975.39;437422;1248;107744;-39
2023/12/14 23:17:30;;;;;;;26.00;14.40;;;;;;;1.00;100.00;98977.58;437433;1248;99253;-38
2023/12/14 23:27:37;;;;;;;28.40;13.70;;;;;;;1.01;100.00;98996.71;437259;1250;108143;-39
2023/12/14 23:37:45;;;;;;;38.70;19.00;;;;;;;1.02;100.00;99013.24;437500;1248;98846;-38
2023/12/14 23:47:52;;;;;;;39.70;20.20;;;;;;;0.91;100.00;99029.16;437428;1250;111038;-40
2023/12/14 23:57:59;;;;;;;29.40;16.70;;;;;;;0.91;100.00;99045.49;437383;1247;107257;-39
